createdAt,value
2018-05-29T00:02:06.345Z,65.28
2018-05-29T00:04:33.858Z,65.02
2018-05-29T00:07:01.415Z,65.06
2018-05-29T00:09:29.018Z,65.33
2018-05-29T00:11:56.543Z,65.16
2018-05-29T00:14:24.050Z,65.18
2018-05-29T00:16:51.550Z,65.12
2018-05-29T00:19:19.113Z,64.89
2018-05-29T00:21:46.586Z,65.15
2018-05-29T00:24:14.070Z,65.30
2018-05-29T00:26:41.586Z,65.80
2018-05-29T00:29:09.178Z,65.67
2018-05-29T00:31:36.706Z,66.23
2018-05-29T00:34:04.166Z,67.10
2018-05-29T00:36:31.650Z,67.12
2018-05-29T00:38:59.123Z,67.19
2018-05-29T00:41:26.669Z,67.37
2018-05-29T00:43:54.210Z,66.92
2018-05-29T00:46:21.696Z,67.33
2018-05-29T00:48:49.150Z,67.70
2018-05-29T00:51:16.675Z,67.61
2018-05-29T00:53:44.142Z,68.02
2018-05-29T00:56:11.690Z,68.22
2018-05-29T00:58:39.171Z,68.38
2018-05-29T01:01:06.664Z,68.34
2018-05-29T01:03:34.142Z,68.36
2018-05-29T01:06:01.729Z,67.78
2018-05-29T01:08:29.198Z,67.54
2018-05-29T01:10:56.688Z,67.10
2018-05-29T01:13:24.214Z,66.60
2018-05-29T01:15:51.698Z,66.69
2018-05-29T01:18:19.218Z,66.08
2018-05-29T01:20:46.711Z,65.71
2018-05-29T01:23:14.181Z,66.05
2018-05-29T01:25:41.698Z,66.41
2018-05-29T01:28:09.160Z,66.67
2018-05-29T01:30:36.734Z,66.33
2018-05-29T01:33:04.315Z,66.47
2018-05-29T01:35:31.805Z,66.54
2018-05-29T01:37:59.305Z,67.07
2018-05-29T01:40:26.795Z,67.13
2018-05-29T01:42:54.310Z,67.34
2018-05-29T01:45:21.794Z,67.56
2018-05-29T01:47:49.258Z,68.07
2018-05-29T01:50:16.747Z,68.46
2018-05-29T01:52:44.226Z,68.68
2018-05-29T01:55:11.798Z,68.94
2018-05-29T01:57:39.278Z,68.98
2018-05-29T02:00:06.857Z,68.28
2018-05-29T02:02:34.346Z,68.76
2018-05-29T02:05:01.834Z,68.79
2018-05-29T02:07:29.402Z,68.95
2018-05-29T02:09:56.860Z,68.62
2018-05-29T02:12:24.411Z,68.41
2018-05-29T02:14:51.894Z,67.43
2018-05-29T02:17:19.474Z,67.77
2018-05-29T02:19:46.938Z,67.68
2018-05-29T02:22:14.446Z,67.46
2018-05-29T02:24:42.007Z,67.83
2018-05-29T02:27:09.574Z,67.41
2018-05-29T02:29:37.033Z,67.43
2018-05-29T02:32:04.527Z,67.63
2018-05-29T02:34:32.062Z,68.11
2018-05-29T02:36:59.563Z,68.11
2018-05-29T02:39:27.062Z,68.03
2018-05-29T02:41:54.547Z,68.03
2018-05-29T02:44:22.180Z,68.30
2018-05-29T02:46:49.670Z,68.36
2018-05-29T02:49:17.239Z,68.68
2018-05-29T02:51:44.760Z,69.10
2018-05-29T02:54:12.320Z,69.49
2018-05-29T02:56:39.814Z,69.89
2018-05-29T02:59:07.283Z,70.30
2018-05-29T03:01:34.890Z,70.79
2018-05-29T03:04:02.355Z,70.72
2018-05-29T03:06:29.864Z,70.90
2018-05-29T03:08:57.375Z,71.31
2018-05-29T03:11:24.864Z,71.18
2018-05-29T03:13:52.332Z,71.41
2018-05-29T03:16:19.853Z,70.65
2018-05-29T03:18:47.319Z,70.73
2018-05-29T03:21:14.806Z,70.67
2018-05-29T03:23:42.427Z,68.92
2018-05-29T03:26:09.983Z,69.40
2018-05-29T03:28:37.446Z,69.80
2018-05-29T03:31:04.932Z,68.66
2018-05-29T03:33:32.411Z,69.88
2018-05-29T03:35:59.947Z,69.96
2018-05-29T03:38:27.438Z,69.70
2018-05-29T03:40:54.903Z,69.57
2018-05-29T03:43:22.389Z,69.44
2018-05-29T03:45:49.947Z,69.45
2018-05-29T03:48:17.509Z,69.24
2018-05-29T03:50:44.975Z,69.62
2018-05-29T03:53:12.462Z,69.16
2018-05-29T03:55:39.931Z,69.44
2018-05-29T03:58:07.483Z,69.36
2018-05-29T04:00:34.962Z,69.43
2018-05-29T04:03:02.463Z,69.66
2018-05-29T04:05:29.946Z,69.77
2018-05-29T04:07:57.520Z,69.68
2018-05-29T04:10:25.027Z,70.07
2018-05-29T04:12:52.515Z,69.71
2018-05-29T04:15:20.060Z,70.06
2018-05-29T04:17:47.556Z,70.27
2018-05-29T04:20:15.093Z,70.62
2018-05-29T04:22:42.584Z,70.76
2018-05-29T04:25:10.087Z,70.91
2018-05-29T04:27:37.570Z,71.03
2018-05-29T04:30:05.031Z,71.04
2018-05-29T04:32:32.527Z,71.17
2018-05-29T04:34:59.987Z,71.31
2018-05-29T04:37:27.492Z,71.21
2018-05-29T04:39:54.966Z,71.50
2018-05-29T04:42:22.458Z,71.91
2018-05-29T04:44:49.930Z,72.82
2018-05-29T04:47:17.415Z,74.17
2018-05-29T04:49:44.988Z,75.24
2018-05-29T04:52:12.485Z,76.88
2018-05-29T04:54:39.963Z,76.80
2018-05-29T04:57:07.455Z,77.48
2018-05-29T04:59:34.923Z,77.65
2018-05-29T05:02:02.479Z,77.61
2018-05-29T05:04:29.942Z,78.07
2018-05-29T05:06:57.433Z,77.93
2018-05-29T05:09:24.903Z,78.38
2018-05-29T05:11:52.367Z,79.26
2018-05-29T05:14:19.898Z,79.50
2018-05-29T05:16:47.368Z,79.60
2018-05-29T05:19:14.866Z,79.51
2018-05-29T05:21:42.326Z,80.22
2018-05-29T05:24:09.886Z,79.98
2018-05-29T05:26:37.455Z,79.46
2018-05-29T05:29:04.938Z,79.93
2018-05-29T05:31:32.403Z,81.39
2018-05-29T05:33:59.902Z,80.76
2018-05-29T05:36:27.446Z,80.54
2018-05-29T05:38:54.925Z,81.25
2018-05-29T05:41:22.385Z,81.46
2018-05-29T05:43:49.958Z,81.36
2018-05-29T05:46:17.535Z,83.09
2018-05-29T05:48:45.089Z,83.77
2018-05-29T05:51:12.610Z,84.43
2018-05-29T05:53:40.194Z,84.01
2018-05-29T05:56:07.753Z,84.57
2018-05-29T05:58:35.301Z,86.41
2018-05-29T06:01:02.783Z,87.44
2018-05-29T06:03:30.265Z,87.48
2018-05-29T06:05:57.722Z,85.64
2018-05-29T06:08:25.202Z,84.73
2018-05-29T06:10:52.685Z,84.04
2018-05-29T06:13:20.174Z,84.50
2018-05-29T06:15:47.702Z,85.49
2018-05-29T06:18:15.188Z,84.12
2018-05-29T06:20:42.674Z,83.52
2018-05-29T06:23:10.173Z,84.21
2018-05-29T06:25:37.630Z,83.34
2018-05-29T06:28:05.125Z,83.15
2018-05-29T06:30:32.586Z,82.99
2018-05-29T06:33:00.171Z,84.60
2018-05-29T06:35:27.640Z,84.51
2018-05-29T06:37:55.131Z,83.30
2018-05-29T06:40:22.595Z,84.63
2018-05-29T06:42:50.118Z,84.42
2018-05-29T06:45:17.599Z,85.78
2018-05-29T06:47:45.112Z,84.98
2018-05-29T06:50:12.586Z,86.36
2018-05-29T06:52:40.052Z,85.72
2018-05-29T06:55:07.577Z,85.05
2018-05-29T06:57:35.072Z,83.32
2018-05-29T07:00:02.587Z,83.44
2018-05-29T07:02:30.068Z,83.86
2018-05-29T07:04:57.699Z,83.12
2018-05-29T07:07:25.255Z,82.51
2018-05-29T07:09:52.748Z,83.87
2018-05-29T07:12:20.213Z,83.29
2018-05-29T07:14:47.734Z,83.14
2018-05-29T07:17:15.329Z,83.30
2018-05-29T07:19:42.831Z,82.21
2018-05-29T07:22:10.300Z,81.86
2018-05-29T07:24:37.823Z,82.37
2018-05-29T07:27:05.278Z,80.75
2018-05-29T07:29:32.779Z,82.85
2018-05-29T07:32:00.258Z,80.49
2018-05-29T07:34:27.759Z,81.67
2018-05-29T07:36:55.239Z,80.35
2018-05-29T07:39:22.814Z,80.13
2018-05-29T07:41:50.314Z,81.22
2018-05-29T07:44:17.808Z,82.09
2018-05-29T07:46:45.271Z,81.66
2018-05-29T07:49:12.855Z,80.62
2018-05-29T07:51:40.314Z,79.68
2018-05-29T07:54:08.078Z,80.44
2018-05-29T07:56:35.603Z,79.48
2018-05-29T07:59:04.030Z,78.97
2018-05-29T08:01:31.519Z,78.65
2018-05-29T08:03:59.083Z,79.91
2018-05-29T08:06:26.606Z,78.42
2018-05-29T08:08:54.095Z,78.68
2018-05-29T08:11:21.573Z,77.75
2018-05-29T08:13:49.266Z,78.39
2018-05-29T08:16:16.730Z,79.59
2018-05-29T08:18:44.291Z,79.83
2018-05-29T08:21:11.795Z,79.01
2018-05-29T08:23:39.287Z,79.30
2018-05-29T08:26:06.776Z,78.77
2018-05-29T08:28:34.276Z,78.74
2018-05-29T08:31:01.812Z,78.72
2018-05-29T08:33:29.339Z,79.01
2018-05-29T08:35:56.822Z,78.88
2018-05-29T08:38:24.293Z,79.33
2018-05-29T08:40:51.787Z,77.59
2018-05-29T08:43:19.249Z,77.46
2018-05-29T08:45:46.742Z,78.16
2018-05-29T08:48:14.231Z,78.18
2018-05-29T08:50:41.793Z,77.11
2018-05-29T08:53:09.592Z,76.38
2018-05-29T08:55:37.088Z,75.19
2018-05-29T08:58:04.565Z,74.31
2018-05-29T09:00:32.095Z,72.06
2018-05-29T09:02:59.690Z,69.76
2018-05-29T09:05:27.193Z,65.64
2018-05-29T09:07:54.663Z,62.24
2018-05-29T09:10:22.165Z,61.22
2018-05-29T09:12:49.636Z,59.86
2018-05-29T09:15:17.139Z,58.35
2018-05-29T09:17:44.615Z,58.30
2018-05-29T09:20:12.127Z,58.06
2018-05-29T09:22:39.662Z,58.10
2018-05-29T09:25:07.171Z,57.78
2018-05-29T09:27:34.660Z,59.87
2018-05-29T09:30:02.308Z,58.91
2018-05-29T09:32:29.839Z,58.72
2018-05-29T09:34:57.332Z,58.25
2018-05-29T09:37:24.924Z,57.32
2018-05-29T09:39:52.387Z,58.59
2018-05-29T09:42:19.891Z,57.59
2018-05-29T09:44:47.421Z,56.59
2018-05-29T09:47:15.847Z,52.30
2018-05-29T09:49:43.391Z,50.69
2018-05-29T09:52:10.882Z,50.46
2018-05-29T09:54:38.411Z,50.06
2018-05-29T09:57:05.891Z,52.05
2018-05-29T09:59:33.484Z,48.57
2018-05-29T10:02:01.138Z,48.47
2018-05-29T10:04:28.653Z,48.15
2018-05-29T10:06:56.297Z,50.22
2018-05-29T10:09:23.876Z,48.64
2018-05-29T10:11:51.441Z,46.72
2018-05-29T10:14:19.408Z,48.55
2018-05-29T10:16:46.943Z,47.83
2018-05-29T10:19:14.432Z,45.60
2018-05-29T10:21:41.999Z,46.61
2018-05-29T10:24:09.564Z,43.88
2018-05-29T10:26:37.059Z,44.05
2018-05-29T10:29:04.540Z,45.32
2018-05-29T10:31:32.326Z,46.20
2018-05-29T10:33:59.820Z,44.25
2018-05-29T10:36:27.347Z,42.95
2018-05-29T10:38:54.811Z,43.40
2018-05-29T10:41:22.475Z,42.25
2018-05-29T10:43:49.955Z,44.90
2018-05-29T10:46:17.497Z,42.96
2018-05-29T10:48:45.034Z,37.85
2018-05-29T10:51:12.530Z,37.38
2018-05-29T10:53:39.998Z,34.68
2018-05-29T10:56:07.523Z,35.21
2018-05-29T10:58:35.105Z,34.78
2018-05-29T11:01:02.662Z,33.65
2018-05-29T11:03:30.152Z,32.37
2018-05-29T11:05:57.671Z,31.47
2018-05-29T11:08:25.152Z,31.63
2018-05-29T11:10:52.651Z,34.22
2018-05-29T11:13:20.149Z,39.28
2018-05-29T11:15:47.635Z,40.90
2018-05-29T11:18:15.118Z,43.84
2018-05-29T11:20:42.643Z,37.67
2018-05-29T11:23:10.171Z,37.62
2018-05-29T11:25:37.655Z,33.66
2018-05-29T11:28:05.272Z,35.92
2018-05-29T11:30:32.827Z,31.59
2018-05-29T11:33:00.357Z,30.52
2018-05-29T11:35:27.825Z,29.84
2018-05-29T11:37:55.325Z,34.12
2018-05-29T11:40:22.800Z,32.80
2018-05-29T11:42:50.332Z,30.50
2018-05-29T11:45:17.806Z,27.74
2018-05-29T11:47:45.360Z,26.41
2018-05-29T11:50:12.854Z,25.12
2018-05-29T11:52:40.352Z,26.53
2018-05-29T11:55:07.821Z,28.72
2018-05-29T11:57:35.313Z,31.25
2018-05-29T12:00:02.835Z,29.99
2018-05-29T12:02:30.396Z,26.18
2018-05-29T12:04:57.956Z,25.41
2018-05-29T12:07:25.514Z,27.27
2018-05-29T12:09:53.071Z,26.85
2018-05-29T12:12:27.190Z,24.85
2018-05-29T12:14:54.756Z,24.91
2018-05-29T12:17:22.282Z,22.84
2018-05-29T12:19:49.757Z,24.48
2018-05-29T12:22:17.276Z,27.75
2018-05-29T12:24:44.750Z,30.63
2018-05-29T12:27:12.239Z,33.12
2018-05-29T12:29:39.702Z,33.27
2018-05-29T12:32:07.204Z,31.54
2018-05-29T12:34:34.679Z,28.42
2018-05-29T12:37:02.178Z,27.50
2018-05-29T12:39:29.664Z,29.76
2018-05-29T12:41:57.196Z,31.69
2018-05-29T12:44:24.679Z,29.87
2018-05-29T12:46:52.209Z,29.20
2018-05-29T12:49:19.767Z,30.14
2018-05-29T12:51:47.255Z,29.82
2018-05-29T12:54:14.723Z,28.40
2018-05-29T12:56:42.211Z,28.91
2018-05-29T12:59:09.699Z,29.74
2018-05-29T13:01:37.263Z,28.45
2018-05-29T13:04:04.827Z,30.06
2018-05-29T13:06:32.340Z,28.27
2018-05-29T13:08:59.831Z,26.18
2018-05-29T13:11:27.335Z,23.90
2018-05-29T13:13:54.821Z,22.76
2018-05-29T13:16:22.286Z,20.46
2018-05-29T13:18:49.855Z,20.05
2018-05-29T13:21:17.315Z,19.33
2018-05-29T13:23:44.803Z,20.68
2018-05-29T13:26:12.261Z,18.32
2018-05-29T13:28:39.789Z,17.89
2018-05-29T13:31:07.366Z,17.35
2018-05-29T13:33:34.859Z,18.34
2018-05-29T13:36:02.388Z,17.08
2018-05-29T13:38:29.877Z,17.71
2018-05-29T13:40:57.342Z,17.92
2018-05-29T13:43:24.868Z,17.19
2018-05-29T13:45:52.427Z,16.67
2018-05-29T13:48:19.918Z,17.60
2018-05-29T13:50:47.403Z,16.88
2018-05-29T13:53:15.000Z,17.57
2018-05-29T13:55:42.556Z,16.21
2018-05-29T13:58:10.115Z,17.10
2018-05-29T14:00:37.587Z,15.42
2018-05-29T14:03:05.083Z,15.87
2018-05-29T14:05:32.566Z,17.46
2018-05-29T14:08:00.186Z,15.45
2018-05-29T14:10:27.674Z,15.04
2018-05-29T14:12:55.267Z,16.27
2018-05-29T14:15:22.800Z,17.22
2018-05-29T14:17:50.304Z,16.27
2018-05-29T14:20:17.771Z,16.67
2018-05-29T14:22:45.312Z,18.22
2018-05-29T14:25:12.865Z,23.16
2018-05-29T14:27:40.347Z,21.32
2018-05-29T14:30:07.879Z,17.63
2018-05-29T14:32:35.442Z,15.86
2018-05-29T14:35:02.918Z,15.87
2018-05-29T14:37:30.410Z,15.01
2018-05-29T14:39:57.884Z,16.01
2018-05-29T14:42:25.393Z,16.31
2018-05-29T14:44:52.944Z,15.74
2018-05-29T14:47:20.425Z,15.51
2018-05-29T14:49:47.941Z,15.58
2018-05-29T14:52:15.430Z,16.21
2018-05-29T14:54:42.926Z,13.92
2018-05-29T14:57:10.412Z,14.88
2018-05-29T14:59:38.023Z,16.04
2018-05-29T15:02:05.635Z,15.09
2018-05-29T15:04:33.157Z,15.67
2018-05-29T15:07:00.655Z,15.25
2018-05-29T15:09:28.155Z,18.49
2018-05-29T15:11:55.649Z,17.89
2018-05-29T15:14:23.157Z,17.27
2018-05-29T15:16:50.634Z,15.21
2018-05-29T15:19:18.164Z,15.74
2018-05-29T15:21:45.635Z,15.42
2018-05-29T15:24:13.129Z,14.32
2018-05-29T15:26:40.627Z,13.67
2018-05-29T15:29:08.125Z,15.53
2018-05-29T15:31:35.668Z,14.69
2018-05-29T15:34:03.219Z,16.20
2018-05-29T15:36:30.682Z,15.44
2018-05-29T15:38:58.170Z,14.51
2018-05-29T15:41:25.666Z,14.33
2018-05-29T15:43:53.159Z,15.88
2018-05-29T15:46:20.671Z,14.94
2018-05-29T15:48:48.158Z,14.28
2018-05-29T15:51:15.742Z,15.42
2018-05-29T15:53:46.608Z,15.52
2018-05-29T15:56:14.160Z,16.48
2018-05-29T15:58:41.662Z,16.64
2018-05-29T16:01:09.311Z,17.13
2018-05-29T16:03:36.935Z,16.30
2018-05-29T16:06:04.407Z,15.50
2018-05-29T16:08:31.964Z,15.55
2018-05-29T16:10:59.443Z,14.50
2018-05-29T16:13:26.947Z,14.95
2018-05-29T16:15:54.496Z,12.78
2018-05-29T16:18:22.003Z,11.75
2018-05-29T16:20:50.343Z,12.13
2018-05-29T16:23:17.810Z,12.10
2018-05-29T16:25:49.755Z,11.71
2018-05-29T16:28:21.527Z,12.44
2018-05-29T16:30:50.062Z,11.67
2018-05-29T16:33:17.577Z,12.90
2018-05-29T16:35:45.059Z,13.20
2018-05-29T16:38:18.202Z,13.80
2018-05-29T16:40:50.812Z,14.25
2018-05-29T16:43:19.589Z,14.96
2018-05-29T16:45:48.797Z,13.95
2018-05-29T16:48:18.090Z,13.95
2018-05-29T16:50:45.656Z,11.70
2018-05-29T16:53:13.126Z,11.65
2018-05-29T16:55:40.621Z,11.95
2018-05-29T16:58:08.164Z,13.33
2018-05-29T17:00:35.656Z,15.26
2018-05-29T17:03:09.788Z,19.80
2018-05-29T17:05:44.629Z,24.10
2018-05-29T17:08:12.264Z,28.00
2018-05-29T17:10:39.783Z,31.21
2018-05-29T17:13:07.347Z,31.29
2018-05-29T17:15:34.906Z,32.96
2018-05-29T17:18:02.416Z,33.75
2018-05-29T17:20:29.912Z,34.58
2018-05-29T17:22:57.502Z,35.15
2018-05-29T17:25:30.790Z,35.30
2018-05-29T17:28:06.778Z,36.17
2018-05-29T17:30:34.332Z,36.44
2018-05-29T17:33:01.819Z,36.77
2018-05-29T17:35:29.484Z,37.19
2018-05-29T17:37:56.973Z,38.12
2018-05-29T17:40:24.482Z,38.16
2018-05-29T17:42:51.983Z,38.23
2018-05-29T17:45:19.489Z,38.72
2018-05-29T17:47:47.153Z,38.31
2018-05-29T17:50:14.643Z,37.40
2018-05-29T17:52:42.145Z,37.50
2018-05-29T17:55:09.677Z,37.37
2018-05-29T17:57:37.167Z,36.49
2018-05-29T18:00:04.663Z,35.93
2018-05-29T18:02:32.158Z,36.14
2018-05-29T18:04:59.651Z,35.71
2018-05-29T18:07:27.148Z,36.36
2018-05-29T18:09:54.639Z,37.07
2018-05-29T18:12:22.105Z,38.28
2018-05-29T18:14:49.649Z,38.47
2018-05-29T18:17:17.210Z,38.35
2018-05-29T18:19:44.725Z,37.29
2018-05-29T18:22:12.241Z,38.06
2018-05-29T18:24:39.711Z,39.38
2018-05-29T18:27:07.208Z,38.81
2018-05-29T18:29:34.682Z,40.03
2018-05-29T18:32:02.173Z,40.36
2018-05-29T18:34:29.649Z,41.33
2018-05-29T18:36:57.133Z,41.71
2018-05-29T18:39:24.617Z,41.70
2018-05-29T18:41:52.174Z,42.09
2018-05-29T18:44:19.650Z,42.62
2018-05-29T18:46:47.230Z,42.74
2018-05-29T18:49:14.789Z,44.67
2018-05-29T18:51:42.331Z,45.02
2018-05-29T18:54:09.819Z,44.31
2018-05-29T18:56:37.317Z,45.01
2018-05-29T18:59:04.802Z,44.99
2018-05-29T19:01:32.296Z,45.40
2018-05-29T19:03:59.767Z,45.43
2018-05-29T19:06:27.276Z,46.14
2018-05-29T19:08:54.772Z,46.62
2018-05-29T19:11:22.266Z,46.65
2018-05-29T19:13:49.750Z,47.19
2018-05-29T19:16:17.262Z,48.11
2018-05-29T19:18:44.763Z,48.24
2018-05-29T19:21:12.258Z,49.19
2018-05-29T19:23:39.722Z,48.78
2018-05-29T19:26:07.247Z,48.91
2018-05-29T19:28:34.718Z,49.05
2018-05-29T19:31:02.206Z,50.24
2018-05-29T19:33:29.674Z,50.13
2018-05-29T19:35:57.187Z,49.63
2018-05-29T19:38:24.706Z,48.89
2018-05-29T19:40:52.372Z,49.04
2018-05-29T19:43:19.838Z,47.80
2018-05-29T19:45:47.346Z,48.13
2018-05-29T19:48:14.809Z,48.46
2018-05-29T19:50:42.358Z,48.28
2018-05-29T19:53:09.892Z,48.37
2018-05-29T19:55:37.390Z,47.82
2018-05-29T19:58:04.871Z,48.64
2018-05-29T20:00:32.403Z,49.97
2018-05-29T20:02:59.898Z,51.22
2018-05-29T20:05:27.378Z,52.25
2018-05-29T20:07:54.861Z,52.01
2018-05-29T20:10:22.334Z,54.06
2018-05-29T20:12:49.890Z,54.84
2018-05-29T20:15:17.470Z,55.08
2018-05-29T20:17:45.051Z,55.65
2018-05-29T20:20:12.523Z,56.13
2018-05-29T20:22:40.014Z,57.37
2018-05-29T20:25:07.503Z,56.50
2018-05-29T20:27:35.055Z,57.25
2018-05-29T20:30:02.542Z,56.79
2018-05-29T20:32:30.101Z,55.81
2018-05-29T20:34:57.642Z,55.93
2018-05-29T20:37:25.141Z,56.26
2018-05-29T20:39:52.622Z,56.33
2018-05-29T20:42:20.127Z,55.96
2018-05-29T20:44:47.603Z,56.52
2018-05-29T20:47:15.131Z,55.71
2018-05-29T20:49:42.606Z,56.52
2018-05-29T20:52:10.119Z,57.30
2018-05-29T20:54:37.881Z,57.99
2018-05-29T20:57:05.467Z,57.78
2018-05-29T20:59:32.944Z,58.30
2018-05-29T21:02:00.435Z,57.93
2018-05-29T21:04:27.926Z,57.09
2018-05-29T21:06:55.435Z,56.77
2018-05-29T21:09:22.920Z,56.35
2018-05-29T21:11:50.410Z,55.87
2018-05-29T21:14:17.872Z,56.45
2018-05-29T21:16:45.366Z,57.18
2018-05-29T21:19:12.887Z,57.49
2018-05-29T21:21:40.442Z,56.61
2018-05-29T21:24:07.937Z,56.65
2018-05-29T21:26:35.408Z,56.69
2018-05-29T21:29:02.920Z,56.47
2018-05-29T21:31:30.385Z,57.20
2018-05-29T21:33:57.867Z,56.40
2018-05-29T21:36:25.374Z,57.18
2018-05-29T21:38:52.866Z,56.63
2018-05-29T21:41:20.454Z,56.34
2018-05-29T21:43:47.967Z,58.08
2018-05-29T21:46:15.461Z,59.18
2018-05-29T21:48:43.063Z,58.40
2018-05-29T21:51:10.590Z,60.95
2018-05-29T21:53:38.129Z,58.69
2018-05-29T21:56:05.609Z,58.91
2018-05-29T21:58:33.188Z,58.83
2018-05-29T22:01:00.754Z,58.96
2018-05-29T22:03:29.195Z,61.15
2018-05-29T22:05:57.169Z,62.91
2018-05-29T22:08:24.724Z,64.55
2018-05-29T22:10:52.282Z,66.02
2018-05-29T22:13:19.776Z,66.66
2018-05-29T22:15:47.958Z,67.24
2018-05-29T22:18:15.442Z,68.04
2018-05-29T22:20:42.907Z,68.62
2018-05-29T22:23:10.408Z,69.03
2018-05-29T22:25:37.891Z,69.35
2018-05-29T22:28:05.503Z,69.54
2018-05-29T22:30:33.054Z,69.03
2018-05-29T22:33:00.665Z,68.53
2018-05-29T22:35:28.143Z,70.04
2018-05-29T22:37:55.647Z,68.92
2018-05-29T22:40:23.217Z,69.71
2018-05-29T22:42:50.686Z,69.87
2018-05-29T22:45:18.218Z,70.30
2018-05-29T22:47:45.687Z,71.30
2018-05-29T22:50:13.172Z,71.86
2018-05-29T22:52:40.761Z,71.99
2018-05-29T22:55:08.251Z,71.57
2018-05-29T22:57:35.819Z,71.39
2018-05-29T23:00:03.377Z,70.94
2018-05-29T23:02:30.934Z,71.42
2018-05-29T23:04:58.490Z,71.36
2018-05-29T23:07:26.014Z,72.29
2018-05-29T23:09:53.508Z,71.55
2018-05-29T23:12:20.971Z,72.45
2018-05-29T23:14:48.530Z,73.35
2018-05-29T23:17:15.996Z,73.12
2018-05-29T23:19:43.531Z,73.12
2018-05-29T23:22:10.994Z,72.86
2018-05-29T23:24:38.521Z,72.42
2018-05-29T23:27:06.003Z,71.87
2018-05-29T23:29:33.521Z,71.91
2018-05-29T23:32:01.002Z,70.85
2018-05-29T23:34:28.487Z,70.35
2018-05-29T23:36:55.969Z,70.25
2018-05-29T23:39:23.534Z,70.29
2018-05-29T23:41:51.071Z,70.31
2018-05-29T23:44:18.630Z,70.61
2018-05-29T23:46:46.211Z,70.82
2018-05-29T23:49:13.753Z,70.97
2018-05-29T23:51:41.237Z,71.29
2018-05-29T23:54:08.815Z,71.58
2018-05-29T23:56:36.326Z,71.92
2018-05-29T23:59:03.794Z,71.87
